KEAT/EAT METAR and TAF weather

Enter ICAO airport designator
Station Type Date Time Source
KEAT METAR 2019/12/08 13:55 UTC NOAA

KEAT 081355Z AUTO 25003KT 10SM OVC006 02/01 A2992 RMK AO2 SLP141 T00170006


Station Type Date Time Source
KEAT Decoded METAR 2019/12/08 13:55 UTC NOAA

WENATCHEE PANGBORN MEMO, WA, United States (KEAT) 47-24N 120-12W 377M
Dec 08, 2019 - 08:55 AM EST / 2019.12.08 1355 UTC
Wind: from the WSW (250 degrees) at 3 MPH (3 KT):0
Visibility: 10 mile(s):0
Sky conditions: overcast
Temperature: 35.1 F (1.7 C)
Dew Point: 33.1 F (0.6 C)
Relative Humidity: 92%
Pressure (altimeter): 29.92 in. Hg (1013 hPa)
ob: KEAT 081355Z AUTO 25003KT 10SM OVC006 02/01 A2992 RMK AO2 SLP141 T00170006
cycle: 14

Station Type Date Time Source
KEAT TAF 2019/12/08 12:36 UTC NOAA

TAF KEAT 081135Z 0812/0912 27005KT P6SM OVC009
FM081700 30003KT P6SM BKN015
FM082100 30003KT P6SM SCT015
FM090800 29004KT P6SM OVC015

Example: see airport list